createdAt,value
2022-08-05T00:01:29.075Z,23.55
2022-08-05T00:03:57.045Z,23.49
2022-08-05T00:06:29.371Z,23.45
2022-08-05T00:09:00.599Z,23.38
2022-08-05T00:11:34.448Z,23.30
2022-08-05T00:14:13.065Z,23.22
2022-08-05T00:16:52.712Z,23.14
2022-08-05T00:19:22.563Z,23.11
2022-08-05T00:21:50.448Z,23.13
2022-08-05T00:24:19.124Z,23.04
2022-08-05T00:26:52.982Z,22.93
2022-08-05T00:29:25.541Z,22.88
2022-08-05T00:32:13.413Z,22.79
2022-08-05T00:34:54.484Z,22.67
2022-08-05T00:37:51.302Z,22.60
2022-08-05T00:40:17.785Z,22.63
2022-08-05T00:42:53.658Z,22.57
2022-08-05T00:45:37.803Z,22.53
2022-08-05T00:48:10.073Z,22.45
2022-08-05T00:50:37.888Z,22.37
2022-08-05T00:53:09.841Z,22.40
2022-08-05T00:55:51.468Z,22.36
2022-08-05T00:58:19.111Z,22.35
2022-08-05T01:00:47.359Z,22.17
2022-08-05T01:03:22.391Z,22.10
2022-08-05T01:05:51.203Z,22.22
2022-08-05T01:08:41.246Z,22.32
2022-08-05T01:11:36.858Z,22.45
2022-08-05T01:14:09.688Z,22.57
2022-08-05T01:16:45.309Z,22.54
2022-08-05T01:19:46.092Z,22.58
2022-08-05T01:22:24.434Z,22.65
2022-08-05T01:25:24.706Z,22.55
2022-08-05T01:28:37.423Z,22.51
2022-08-05T01:31:19.208Z,22.54
2022-08-05T01:33:51.976Z,22.48
2022-08-05T01:36:21.162Z,22.40
2022-08-05T01:38:56.022Z,22.39
2022-08-05T01:41:25.529Z,22.37
2022-08-05T01:43:53.836Z,22.30
2022-08-05T01:46:42.077Z,22.22
2022-08-05T01:49:23.300Z,22.15
2022-08-05T01:51:54.165Z,22.05
2022-08-05T01:54:24.638Z,21.92
2022-08-05T01:58:11.967Z,21.95
2022-08-05T01:59:40.849Z,21.92
2022-08-05T02:02:14.212Z,21.97
2022-08-05T02:04:43.120Z,21.90
2022-08-05T02:07:22.161Z,21.85
2022-08-05T02:09:50.864Z,21.79
2022-08-05T02:12:50.877Z,21.71
2022-08-05T02:15:23.405Z,21.71
2022-08-05T02:18:27.584Z,21.59
2022-08-05T02:21:06.694Z,21.56
2022-08-05T02:23:44.692Z,21.54
2022-08-05T02:26:13.523Z,21.54
2022-08-05T02:28:44.590Z,21.50
2022-08-05T02:31:16.634Z,21.45
2022-08-05T02:33:57.696Z,21.44
2022-08-05T02:36:27.657Z,21.38
2022-08-05T02:38:58.468Z,21.32
2022-08-05T02:41:28.785Z,21.26
2022-08-05T02:44:11.200Z,21.28
2022-08-05T02:46:53.240Z,21.20
2022-08-05T02:49:27.433Z,21.21
2022-08-05T02:52:11.643Z,21.11
2022-08-05T02:54:42.277Z,21.11
2022-08-05T02:58:09.288Z,21.06
2022-08-05T03:00:01.677Z,20.98
2022-08-05T03:02:38.360Z,20.91
2022-08-05T03:05:08.725Z,20.90
2022-08-05T03:08:00.505Z,20.85
2022-08-05T03:10:25.662Z,20.80
2022-08-05T03:12:54.033Z,20.88
2022-08-05T03:15:23.586Z,20.85
2022-08-05T03:17:54.200Z,20.77
2022-08-05T03:20:22.373Z,20.78
2022-08-05T03:22:50.868Z,20.73
2022-08-05T03:25:32.463Z,20.71
2022-08-05T03:28:08.462Z,20.68
2022-08-05T03:30:35.854Z,20.67
2022-08-05T03:33:05.702Z,20.71
2022-08-05T03:35:33.851Z,20.71
2022-08-05T03:38:01.122Z,20.76
2022-08-05T03:40:32.071Z,20.86
2022-08-05T03:42:59.616Z,21.02
2022-08-05T03:45:58.315Z,21.05
2022-08-05T03:48:29.760Z,21.07
2022-08-05T03:52:37.149Z,21.10
2022-08-05T03:55:00.468Z,21.18
2022-08-05T03:57:16.433Z,21.12
2022-08-05T03:59:54.850Z,21.11
2022-08-05T04:02:37.704Z,21.12
2022-08-05T04:05:09.559Z,21.02
2022-08-05T04:07:57.192Z,21.00
2022-08-05T04:10:27.832Z,21.03
2022-08-05T04:12:55.575Z,21.05
2022-08-05T04:15:25.916Z,21.07
2022-08-05T04:17:56.338Z,21.11
2022-08-05T04:20:24.359Z,21.18
2022-08-05T04:22:51.371Z,21.28
2022-08-05T04:25:18.283Z,21.34
2022-08-05T04:27:57.430Z,21.47
2022-08-05T04:30:27.180Z,21.65
2022-08-05T04:32:55.253Z,21.74
2022-08-05T04:35:23.245Z,21.76
2022-08-05T04:40:35.327Z,21.97
2022-08-05T04:43:02.217Z,22.03
2022-08-05T04:45:47.927Z,22.00
2022-08-05T04:48:27.988Z,22.02
2022-08-05T04:51:03.593Z,22.11
2022-08-05T04:53:38.842Z,22.15
2022-08-05T05:00:25.495Z,22.50
2022-08-05T05:02:52.370Z,22.62
2022-08-05T05:05:28.066Z,22.71
2022-08-05T05:08:01.856Z,22.81
2022-08-05T05:10:30.553Z,22.98
2022-08-05T05:13:00.237Z,23.17
2022-08-05T05:15:56.841Z,23.41
2022-08-05T05:18:31.582Z,23.53
2022-08-05T05:21:01.345Z,23.80
2022-08-05T05:23:39.138Z,23.90
2022-08-05T05:26:14.666Z,23.96
2022-08-05T05:28:42.811Z,24.05
2022-08-05T05:31:11.644Z,24.19
2022-08-05T05:33:58.627Z,24.23
2022-08-05T05:36:24.932Z,24.42
2022-08-05T05:38:57.090Z,24.66
2022-08-05T05:41:24.056Z,24.98
2022-08-05T05:43:58.461Z,25.12
2022-08-05T05:46:27.270Z,25.21
2022-08-05T05:48:53.862Z,25.21
2022-08-05T05:51:25.702Z,25.17
2022-08-05T05:53:57.600Z,25.16
2022-08-05T05:56:32.239Z,25.15
2022-08-05T05:59:06.538Z,25.20
2022-08-05T06:01:38.075Z,25.24
2022-08-05T06:04:11.299Z,25.22
2022-08-05T06:06:39.374Z,25.39
2022-08-05T06:09:08.670Z,25.35
2022-08-05T06:11:35.598Z,25.24
2022-08-05T06:14:06.069Z,25.23
2022-08-05T06:16:37.246Z,25.24
2022-08-05T06:19:05.842Z,25.04
2022-08-05T06:21:36.421Z,24.77
2022-08-05T06:24:11.198Z,24.71
2022-08-05T06:26:51.089Z,24.64
2022-08-05T06:29:26.454Z,24.79
2022-08-05T06:32:05.635Z,25.21
2022-08-05T06:34:48.394Z,25.43
2022-08-05T06:37:55.666Z,25.81
2022-08-05T06:40:07.501Z,26.16
2022-08-05T06:42:34.146Z,26.56
2022-08-05T06:45:00.753Z,26.87
2022-08-05T06:48:44.140Z,26.64
2022-08-05T06:50:19.110Z,26.10
2022-08-05T06:52:58.602Z,26.03
2022-08-05T06:55:36.499Z,26.07
2022-08-05T06:58:20.116Z,26.34
2022-08-05T07:00:50.919Z,26.73
2022-08-05T07:03:18.095Z,26.82
2022-08-05T07:05:46.359Z,26.93
2022-08-05T07:08:13.557Z,27.18
2022-08-05T07:10:53.427Z,27.18
2022-08-05T07:13:59.189Z,27.41
2022-08-05T07:17:58.903Z,27.38
2022-08-05T07:22:28.747Z,26.69
2022-08-05T07:25:23.257Z,26.32
2022-08-05T07:27:58.772Z,26.19
2022-08-05T07:30:34.599Z,25.99
2022-08-05T07:33:09.417Z,25.80
2022-08-05T07:36:01.939Z,25.63
2022-08-05T07:38:32.355Z,25.46
2022-08-05T07:42:07.172Z,25.42
2022-08-05T07:43:51.002Z,25.58
2022-08-05T07:46:24.762Z,25.60
2022-08-05T07:49:01.835Z,25.55
2022-08-05T07:51:48.997Z,25.36
2022-08-05T07:54:31.065Z,25.21
2022-08-05T07:57:22.640Z,25.14
2022-08-05T07:59:48.976Z,24.99
2022-08-05T08:02:17.579Z,24.96
2022-08-05T08:04:49.206Z,25.01
2022-08-05T08:07:18.412Z,24.93
2022-08-05T08:09:52.549Z,24.70
2022-08-05T08:12:33.295Z,24.82
2022-08-05T08:15:09.466Z,24.49
2022-08-05T08:17:40.918Z,24.38
2022-08-05T08:20:42.568Z,24.26
2022-08-05T08:23:03.979Z,23.98
2022-08-05T08:26:00.952Z,23.85
2022-08-05T08:28:18.254Z,23.59
2022-08-05T08:30:47.741Z,23.19
2022-08-05T08:33:16.646Z,22.88
2022-08-05T08:35:53.950Z,22.73
2022-08-05T08:38:35.199Z,22.57
2022-08-05T08:41:08.510Z,22.28
2022-08-05T08:45:16.917Z,22.33
2022-08-05T08:46:24.015Z,22.39
2022-08-05T08:49:06.109Z,22.50
2022-08-05T08:52:04.052Z,22.45
2022-08-05T08:54:27.837Z,22.41
2022-08-05T08:56:56.635Z,22.39
2022-08-05T08:59:27.518Z,22.36
2022-08-05T09:01:57.300Z,22.33
2022-08-05T09:04:30.522Z,22.30
2022-08-05T09:06:57.808Z,22.21
2022-08-05T09:09:26.069Z,22.20
2022-08-05T09:12:20.213Z,22.25
2022-08-05T09:14:57.339Z,22.31
2022-08-05T09:17:40.465Z,22.37
2022-08-05T09:20:08.941Z,22.48
2022-08-05T09:23:07.816Z,22.62
2022-08-05T09:26:01.718Z,22.72
2022-08-05T09:28:24.516Z,22.63
2022-08-05T09:31:43.562Z,22.64
2022-08-05T09:33:59.189Z,22.50
2022-08-05T09:36:39.073Z,22.41
2022-08-05T09:39:27.735Z,22.45
2022-08-05T09:42:08.790Z,22.58
2022-08-05T09:44:42.808Z,22.63
2022-08-05T09:47:15.422Z,22.55
2022-08-05T09:50:01.350Z,22.56
2022-08-05T09:52:31.634Z,22.70
2022-08-05T09:55:57.696Z,22.73
2022-08-05T09:57:54.726Z,22.67
2022-08-05T10:00:26.518Z,22.63
2022-08-05T10:02:58.570Z,22.59
2022-08-05T10:05:27.041Z,22.54
2022-08-05T10:08:35.778Z,22.55
2022-08-05T10:10:53.972Z,22.59
2022-08-05T10:13:45.676Z,22.59
2022-08-05T10:16:33.843Z,22.45
2022-08-05T10:19:08.513Z,22.42
2022-08-05T10:21:40.113Z,22.41
2022-08-05T10:24:13.363Z,22.44
2022-08-05T10:26:49.045Z,22.40
2022-08-05T10:30:05.758Z,22.40
2022-08-05T10:33:02.200Z,22.51
2022-08-05T10:35:00.801Z,22.60
2022-08-05T10:37:39.996Z,22.62
2022-08-05T10:40:49.240Z,22.79
2022-08-05T10:43:42.098Z,22.97
2022-08-05T10:46:11.850Z,23.23
2022-08-05T10:48:56.899Z,23.51
2022-08-05T10:51:28.732Z,24.05
2022-08-05T10:54:01.845Z,24.47
2022-08-05T10:56:44.536Z,24.73
2022-08-05T11:00:01.326Z,24.85
2022-08-05T11:02:14.404Z,24.89
2022-08-05T11:04:59.456Z,25.39
2022-08-05T11:07:33.016Z,26.10
2022-08-05T11:10:27.130Z,26.45
2022-08-05T11:12:55.923Z,26.77
2022-08-05T11:16:00.521Z,26.99
2022-08-05T11:18:34.381Z,27.16
2022-08-05T11:21:11.175Z,27.43
2022-08-05T11:24:05.536Z,27.78
2022-08-05T11:26:40.477Z,28.13
2022-08-05T11:29:34.438Z,28.42
2022-08-05T11:32:27.699Z,28.59
2022-08-05T11:34:55.296Z,28.51
2022-08-05T11:38:30.136Z,28.83
2022-08-05T11:41:34.314Z,28.97
2022-08-05T11:44:08.097Z,29.17
2022-08-05T11:46:58.365Z,28.85
2022-08-05T11:49:33.840Z,28.58
2022-08-05T11:52:01.175Z,28.27
2022-08-05T11:54:33.619Z,28.05
2022-08-05T11:57:08.678Z,28.12
2022-08-05T11:59:50.249Z,28.71
2022-08-05T12:02:30.637Z,28.68
2022-08-05T12:05:01.218Z,28.60
2022-08-05T12:08:03.399Z,28.75
2022-08-05T12:10:44.983Z,28.13
2022-08-05T12:13:16.814Z,27.95
2022-08-05T12:15:45.099Z,27.94
2022-08-05T12:18:17.762Z,27.81
2022-08-05T12:20:47.326Z,27.71
2022-08-05T12:23:14.429Z,27.43
2022-08-05T12:25:56.977Z,27.25
2022-08-05T12:28:37.803Z,26.98
2022-08-05T12:31:04.931Z,27.14
2022-08-05T12:33:36.526Z,27.36
2022-08-05T12:36:08.155Z,27.32
2022-08-05T12:38:41.729Z,27.33
2022-08-05T12:41:13.499Z,27.51
2022-08-05T12:43:58.721Z,27.97
2022-08-05T12:46:29.741Z,28.45
2022-08-05T12:49:05.893Z,28.71
2022-08-05T12:52:12.103Z,29.00
2022-08-05T12:54:51.079Z,28.93
2022-08-05T12:57:19.317Z,28.69
2022-08-05T13:02:00.180Z,29.02
2022-08-05T13:02:40.112Z,29.41
2022-08-05T13:05:08.494Z,29.45
2022-08-05T13:07:59.686Z,29.27
2022-08-05T13:10:26.893Z,28.95
2022-08-05T13:12:58.226Z,28.73
2022-08-05T13:15:41.414Z,28.54
2022-08-05T13:18:18.919Z,28.78
2022-08-05T13:20:49.168Z,28.84
2022-08-05T13:23:18.039Z,28.73
2022-08-05T13:25:52.058Z,28.56
2022-08-05T13:28:25.367Z,28.41
2022-08-05T13:30:53.338Z,28.26
2022-08-05T13:34:24.148Z,28.18
2022-08-05T13:36:09.167Z,28.22
2022-08-05T13:38:38.548Z,28.47
2022-08-05T13:44:05.662Z,28.69
2022-08-05T13:46:44.265Z,28.76
2022-08-05T13:49:19.724Z,28.83
2022-08-05T13:51:48.208Z,28.63
2022-08-05T13:54:20.815Z,28.58
2022-08-05T13:56:52.018Z,28.44
2022-08-05T13:59:23.978Z,28.28
2022-08-05T14:01:57.651Z,28.09
2022-08-05T14:04:50.021Z,27.41
2022-08-05T14:07:25.361Z,27.58
2022-08-05T14:10:09.285Z,27.68
2022-08-05T14:12:36.600Z,27.79
2022-08-05T14:15:05.985Z,27.31
2022-08-05T14:17:51.105Z,27.29
2022-08-05T14:20:21.757Z,27.02
2022-08-05T14:22:54.417Z,26.94
2022-08-05T14:25:22.494Z,27.20
2022-08-05T14:27:54.412Z,27.36
2022-08-05T14:30:22.085Z,27.59
2022-08-05T14:32:52.441Z,27.75
2022-08-05T14:35:20.848Z,27.94
2022-08-05T14:37:53.579Z,27.95
2022-08-05T14:40:24.251Z,27.99
2022-08-05T14:42:51.919Z,27.87
2022-08-05T14:45:18.736Z,27.86
2022-08-05T14:48:03.161Z,27.77
2022-08-05T14:50:31.801Z,27.65
2022-08-05T14:52:59.948Z,27.41
2022-08-05T14:55:38.560Z,27.38
2022-08-05T14:58:11.157Z,27.24
2022-08-05T15:00:58.402Z,27.11
2022-08-05T15:03:33.330Z,27.08
2022-08-05T15:06:08.210Z,26.87
2022-08-05T15:09:01.310Z,26.76
2022-08-05T15:11:52.642Z,26.68
2022-08-05T15:14:33.413Z,26.53
2022-08-05T15:17:01.828Z,26.49
2022-08-05T15:19:30.716Z,26.38
2022-08-05T15:22:01.036Z,26.32
2022-08-05T15:24:28.616Z,26.13
2022-08-05T15:26:55.936Z,25.87
2022-08-05T15:29:23.696Z,25.73
2022-08-05T15:31:56.670Z,25.52
2022-08-05T15:34:33.127Z,25.37
2022-08-05T15:37:06.842Z,25.22
2022-08-05T15:40:58.698Z,25.02
2022-08-05T15:42:54.357Z,24.99
2022-08-05T15:45:15.026Z,24.89
2022-08-05T15:47:45.679Z,24.74
2022-08-05T15:50:15.248Z,24.47
2022-08-05T15:52:54.261Z,24.39
2022-08-05T15:55:24.964Z,24.34
2022-08-05T15:58:09.870Z,24.29
2022-08-05T16:00:50.661Z,24.17
2022-08-05T16:03:30.361Z,24.04
2022-08-05T16:05:59.688Z,23.74
2022-08-05T16:08:30.739Z,23.73
2022-08-05T16:10:58.260Z,23.75
2022-08-05T16:13:31.926Z,23.49
2022-08-05T16:16:04.524Z,23.38
2022-08-05T16:18:32.957Z,23.11
2022-08-05T16:21:04.834Z,22.99
2022-08-05T16:23:53.133Z,22.94
2022-08-05T16:26:19.137Z,22.55
2022-08-05T16:28:53.207Z,22.61
2022-08-05T16:31:21.748Z,22.57
2022-08-05T16:33:49.181Z,22.50
2022-08-05T16:36:20.508Z,22.29
2022-08-05T16:38:54.682Z,22.02
2022-08-05T16:42:27.673Z,21.85
2022-08-05T16:44:09.669Z,21.73
2022-08-05T16:46:38.755Z,21.49
2022-08-05T16:49:09.185Z,21.13
2022-08-05T16:51:42.345Z,21.00
2022-08-05T16:54:17.557Z,20.86
2022-08-05T16:56:47.288Z,20.72
2022-08-05T16:59:19.006Z,20.64
2022-08-05T17:01:53.692Z,20.64
2022-08-05T17:04:27.944Z,20.59
2022-08-05T17:07:00.084Z,20.56
2022-08-05T17:09:28.429Z,20.46
2022-08-05T17:11:59.502Z,20.40
2022-08-05T17:14:37.469Z,20.22
2022-08-05T17:17:14.615Z,20.00
2022-08-05T17:19:45.238Z,19.89
2022-08-05T17:22:24.862Z,19.82
2022-08-05T17:24:58.031Z,19.78
2022-08-05T17:27:26.351Z,19.70
2022-08-05T17:30:00.569Z,19.71
2022-08-05T17:32:29.212Z,19.64
2022-08-05T17:34:58.225Z,19.61
2022-08-05T17:37:39.377Z,19.58
2022-08-05T17:40:14.363Z,19.57
2022-08-05T17:42:49.863Z,19.47
2022-08-05T17:45:22.943Z,19.36
2022-08-05T17:47:54.545Z,19.33
2022-08-05T17:50:28.420Z,19.33
2022-08-05T17:52:58.971Z,19.26
2022-08-05T17:55:34.387Z,19.22
2022-08-05T17:58:07.005Z,19.22
2022-08-05T18:00:36.161Z,19.18
2022-08-05T18:03:11.894Z,19.23
2022-08-05T18:05:53.587Z,19.26
2022-08-05T18:08:20.977Z,19.18
2022-08-05T18:10:47.719Z,19.26
2022-08-05T18:13:15.668Z,19.33
2022-08-05T18:15:42.650Z,19.22
2022-08-05T18:18:11.619Z,19.15
2022-08-05T18:20:38.772Z,18.98
2022-08-05T18:23:09.059Z,18.97
2022-08-05T18:25:39.203Z,18.88
2022-08-05T18:28:16.502Z,18.84
2022-08-05T18:30:50.052Z,18.83
2022-08-05T18:33:22.588Z,18.74
2022-08-05T18:36:03.439Z,18.71
2022-08-05T18:38:35.814Z,18.66
2022-08-05T18:41:56.461Z,18.75
2022-08-05T18:43:54.214Z,18.59
2022-08-05T18:46:20.935Z,18.58
2022-08-05T18:48:51.974Z,18.46
2022-08-05T18:52:06.505Z,18.47
2022-08-05T18:54:31.372Z,18.42
2022-08-05T18:57:02.009Z,18.47
2022-08-05T18:59:42.730Z,18.40
2022-08-05T19:02:27.802Z,18.43
2022-08-05T19:05:02.247Z,18.33
2022-08-05T19:07:49.606Z,18.31
2022-08-05T19:10:17.711Z,18.31
2022-08-05T19:12:46.077Z,18.33
2022-08-05T19:15:57.581Z,18.34
2022-08-05T19:18:10.522Z,18.30
2022-08-05T19:20:41.526Z,18.26
2022-08-05T19:24:04.372Z,18.29
2022-08-05T19:26:01.930Z,18.20
2022-08-05T19:31:21.307Z,18.03
2022-08-05T19:33:56.312Z,17.98
2022-08-05T19:36:29.277Z,17.90
2022-08-05T19:38:58.776Z,17.83
2022-08-05T19:41:58.220Z,17.81
2022-08-05T19:44:14.704Z,17.78
2022-08-05T19:46:43.792Z,17.72
2022-08-05T19:49:12.535Z,17.63
2022-08-05T19:52:04.525Z,17.60
2022-08-05T19:54:31.882Z,17.62
2022-08-05T19:57:06.580Z,17.63
2022-08-05T19:59:55.268Z,17.58
2022-08-05T20:02:28.014Z,17.48
2022-08-05T20:04:58.517Z,17.51
2022-08-05T20:07:47.311Z,17.53
2022-08-05T20:10:14.414Z,17.40
2022-08-05T20:12:46.098Z,17.41
2022-08-05T20:15:48.366Z,17.43
2022-08-05T20:18:04.388Z,17.33
2022-08-05T20:20:37.893Z,17.34
2022-08-05T20:23:05.448Z,17.24
2022-08-05T20:25:33.763Z,17.25
2022-08-05T20:28:07.878Z,17.09
2022-08-05T20:30:40.436Z,17.05
2022-08-05T20:33:08.733Z,16.91
2022-08-05T20:35:40.709Z,16.93
2022-08-05T20:38:22.644Z,16.86
2022-08-05T20:40:55.464Z,16.84
2022-08-05T20:43:33.143Z,16.82
2022-08-05T20:46:12.523Z,16.83
2022-08-05T20:48:45.373Z,16.94
2022-08-05T20:51:17.671Z,16.98
2022-08-05T20:53:44.520Z,16.95
2022-08-05T20:56:28.162Z,16.88
2022-08-05T20:58:56.839Z,16.87
2022-08-05T21:01:38.590Z,16.88
2022-08-05T21:04:07.272Z,16.87
2022-08-05T21:06:37.647Z,16.88
2022-08-05T21:09:12.163Z,16.83
2022-08-05T21:12:06.910Z,16.83
2022-08-05T21:14:27.790Z,16.82
2022-08-05T21:16:55.192Z,16.78
2022-08-05T21:19:23.525Z,16.73
2022-08-05T21:21:50.801Z,16.70
2022-08-05T21:24:19.531Z,16.69
2022-08-05T21:26:53.345Z,16.67
2022-08-05T21:29:26.664Z,16.67
2022-08-05T21:31:58.375Z,16.69
2022-08-05T21:34:24.987Z,16.66
2022-08-05T21:36:51.713Z,16.67
2022-08-05T21:39:26.887Z,16.59
2022-08-05T21:42:01.087Z,16.58
2022-08-05T21:44:28.475Z,16.47
2022-08-05T21:46:55.751Z,16.37
2022-08-05T21:49:56.623Z,16.26
2022-08-05T21:52:16.457Z,16.20
2022-08-05T21:54:55.190Z,16.16
2022-08-05T21:57:31.303Z,16.13
2022-08-05T22:00:10.764Z,16.04
2022-08-05T22:02:38.686Z,15.95
2022-08-05T22:05:06.015Z,15.91
2022-08-05T22:07:40.261Z,15.89
2022-08-05T22:10:25.557Z,15.80
2022-08-05T22:12:59.097Z,15.73
2022-08-05T22:16:01.781Z,15.64
2022-08-05T22:18:30.350Z,15.60
2022-08-05T22:20:58.799Z,15.51
2022-08-05T22:24:01.086Z,15.46
2022-08-05T22:26:49.985Z,15.37
2022-08-05T22:29:26.725Z,15.33
2022-08-05T22:31:59.258Z,15.23
2022-08-05T22:34:28.775Z,15.14
2022-08-05T22:36:58.245Z,15.08
2022-08-05T22:39:29.789Z,15.02
2022-08-05T22:42:09.810Z,15.01
2022-08-05T22:44:38.618Z,14.93
2022-08-05T22:47:06.529Z,14.91
2022-08-05T22:50:20.984Z,14.96
2022-08-05T22:52:30.111Z,14.92
2022-08-05T22:54:59.754Z,15.05
2022-08-05T22:57:26.809Z,15.09
2022-08-05T23:00:00.926Z,15.04
2022-08-05T23:02:30.265Z,14.99
2022-08-05T23:05:01.766Z,15.04
2022-08-05T23:07:32.166Z,15.03
2022-08-05T23:10:02.112Z,15.05
2022-08-05T23:12:32.644Z,14.97
2022-08-05T23:15:08.999Z,14.98
2022-08-05T23:17:37.948Z,14.98
2022-08-05T23:20:23.438Z,15.03
2022-08-05T23:22:52.793Z,14.95
2022-08-05T23:25:53.362Z,15.00
2022-08-05T23:28:10.063Z,14.97
2022-08-05T23:30:40.113Z,14.94
2022-08-05T23:33:16.181Z,14.79
2022-08-05T23:35:50.230Z,14.86
2022-08-05T23:38:17.035Z,14.81
2022-08-05T23:40:49.423Z,14.88
2022-08-05T23:43:25.648Z,14.90
2022-08-05T23:46:20.997Z,14.84
2022-08-05T23:48:59.894Z,14.87
2022-08-05T23:51:52.315Z,14.87
2022-08-05T23:54:25.657Z,14.78
2022-08-05T23:56:54.446Z,14.82
2022-08-05T23:59:22.167Z,14.79
